Time;durP1;ratioP1;P1;durP2;ratioP2;P2;SDS_P1;SDS_P2;PMS_P1;PMS_P2;Temp;Humidity;BMP_temperature;BMP_pressure;BME280_temperature;BME280_humidity;BME280_pressure;Samples;Min_cycle;Max_cycle;Signal;HPM_P1;HPM_P2
2022/01/21 00:01:09;;;;;;;14.97;3.70;;;-0.10;99.90;;;;;;5014687;28;20186;-71
2022/01/21 00:03:35;;;;;;;13.20;3.83;;;-0.20;99.90;;;;;;5014720;28;20182;-71
2022/01/21 00:06:06;;;;;;;12.53;4.10;;;-0.20;99.90;;;;;;5014551;28;20185;-71
2022/01/21 00:08:32;;;;;;;19.93;4.80;;;-0.20;99.90;;;;;;5014520;28;20239;-72
2022/01/21 00:10:58;;;;;;;11.40;4.37;;;-0.30;99.90;;;;;;5014055;28;20182;-74
2022/01/21 00:13:36;;;;;;;13.13;4.70;;;-0.30;99.90;;;;;;5028258;28;20276;-73
2022/01/21 00:16:08;;;;;;;16.67;4.70;;;-0.30;99.90;;;;;;5034290;28;20178;-75
2022/01/21 00:18:37;;;;;;;12.43;4.20;;;-0.30;99.90;;;;;;5033697;28;20185;-72
2022/01/21 00:32:03;;;;;;;9.80;4.03;;;-0.40;99.90;;;;;;5016961;28;20669;-61
2022/01/21 00:34:29;;;;;;;12.83;3.90;;;-0.40;99.90;;;;;;5033908;28;20180;-59
2022/01/21 00:36:55;;;;;;;11.13;3.90;;;-0.40;99.90;;;;;;5033487;28;20705;-70
2022/01/21 00:39:24;;;;;;;10.00;3.97;;;-0.40;99.90;;;;;;5015309;28;20178;-70
2022/01/21 00:42:25;;;;;;;11.27;4.17;;;-0.50;99.90;;;;;;5033547;28;20180;-71
2022/01/21 00:44:39;;;;;;;11.07;3.90;;;-0.50;99.90;;;;;;5031959;28;20588;-71
2022/01/21 00:47:06;;;;;;;15.50;4.27;;;-0.40;99.90;;;;;;5015210;28;20200;-72
2022/01/21 00:49:32;;;;;;;16.37;4.17;;;-0.40;99.90;;;;;;5033593;28;20201;-73
2022/01/21 00:51:57;;;;;;;13.20;4.13;;;-0.40;99.90;;;;;;5032774;28;20663;-70
2022/01/21 00:54:23;;;;;;;14.53;4.60;;;-0.40;99.90;;;;;;5033604;28;20342;-72
2022/01/21 00:56:49;;;;;;;15.47;4.60;;;-0.50;99.90;;;;;;5033603;28;20177;-72
2022/01/21 00:59:15;;;;;;;15.17;4.60;;;-0.50;99.90;;;;;;5033241;28;20178;-72
2022/01/21 01:01:41;;;;;;;16.57;4.43;;;-0.50;99.90;;;;;;5033428;28;20208;-73
2022/01/21 01:04:07;;;;;;;13.23;4.20;;;-0.50;99.90;;;;;;5033377;28;20204;-72
2022/01/21 01:06:33;;;;;;;14.33;4.20;;;-0.50;99.90;;;;;;5033259;28;20719;-72
2022/01/21 01:08:59;;;;;;;13.93;4.07;;;-0.50;99.90;;;;;;5032233;28;20250;-71
2022/01/21 01:19:57;;;;;;;11.17;3.63;;;-0.50;99.90;;;;;;5033407;28;20185;-70
2022/01/21 01:22:30;;;;;;;17.03;3.67;;;-1.00;99.90;;;;;;5033136;28;20681;-71
2022/01/21 01:27:44;;;;;;;14.33;3.73;;;-0.60;99.90;;;;;;5032924;28;20239;-71
2022/01/21 01:30:13;;;;;;;9.77;3.77;;;-0.60;99.90;;;;;;5033081;28;20632;-71
2022/01/21 01:32:40;;;;;;;15.57;3.57;;;-0.60;99.90;;;;;;5014854;28;20292;-70
2022/01/21 01:35:07;;;;;;;14.37;3.93;;;-0.60;99.90;;;;;;5031983;28;20182;-70
2022/01/21 01:40:12;;;;;;;11.13;4.00;;;-0.70;99.90;;;;;;5014712;28;20268;-70
2022/01/21 01:49:27;;;;;;;9.47;3.37;;;-0.70;99.90;;;;;;5032661;28;20177;-69
2022/01/21 01:51:10;;;;;;;19.90;3.90;;;-0.80;99.90;;;;;;5033086;28;20176;-71
2022/01/21 01:53:41;;;;;;;13.13;4.07;;;-0.90;99.90;;;;;;5034285;28;20244;-69
2022/01/21 01:56:10;;;;;;;9.87;3.60;;;-0.90;99.90;;;;;;5015046;28;20166;-69
2022/01/21 01:58:41;;;;;;;10.70;3.50;;;-0.90;99.90;;;;;;5031739;28;20181;-71
2022/01/21 02:01:07;;;;;;;10.10;3.50;;;-0.90;99.90;;;;;;5032708;28;20173;-69
2022/01/21 02:03:34;;;;;;;16.20;3.97;;;-0.90;99.90;;;;;;5031232;28;20204;-71
2022/01/21 02:06:00;;;;;;;19.63;4.00;;;-0.90;99.90;;;;;;5032513;28;20215;-70
2022/01/21 02:08:29;;;;;;;12.70;4.00;;;-0.90;99.90;;;;;;5032285;28;20201;-61
2022/01/21 02:10:56;;;;;;;10.03;3.33;;;-0.90;99.90;;;;;;5020436;28;20208;-67
2022/01/21 02:13:26;;;;;;;11.77;3.57;;;-0.90;99.90;;;;;;5031889;28;20771;-69
2022/01/21 02:16:05;;;;;;;8.93;3.37;;;-0.90;99.90;;;;;;5032133;28;20224;-70
2022/01/21 02:21:31;;;;;;;11.27;3.67;;;-0.80;99.90;;;;;;5031637;28;20542;-70
2022/01/21 02:24:20;;;;;;;18.23;3.50;;;-0.80;99.90;;;;;;5031763;28;20188;-69
2022/01/21 02:26:48;;;;;;;10.70;3.67;;;-0.80;99.90;;;;;;5031550;28;20177;-69
2022/01/21 02:29:25;;;;;;;7.87;3.00;;;-0.70;99.90;;;;;;5031683;28;20220;-68
2022/01/21 02:31:52;;;;;;;10.90;3.27;;;-0.70;99.90;;;;;;5031113;28;20241;-69
2022/01/21 02:34:17;;;;;;;10.13;3.80;;;-0.40;99.90;;;;;;5031422;28;20184;-69
2022/01/21 02:36:43;;;;;;;10.20;3.13;;;-0.80;99.90;;;;;;5024257;28;20178;-68
2022/01/21 02:39:09;;;;;;;16.67;3.80;;;-0.80;99.90;;;;;;5016244;28;20566;-69
2022/01/21 02:41:35;;;;;;;10.37;3.33;;;-0.80;99.90;;;;;;5031320;28;20712;-70
2022/01/21 02:44:01;;;;;;;13.90;3.17;;;-0.70;99.90;;;;;;5031393;28;20252;-69
2022/01/21 02:46:27;;;;;;;7.67;3.23;;;-0.80;99.90;;;;;;5031215;28;20173;-68
2022/01/21 02:48:53;;;;;;;12.93;3.03;;;-0.80;99.90;;;;;;5031252;28;20192;-69
2022/01/21 02:51:19;;;;;;;13.63;3.10;;;-0.90;99.90;;;;;;5023208;28;20224;-70
2022/01/21 02:56:17;;;;;;;12.53;3.47;;;-1.00;99.90;;;;;;5014581;28;20182;-68
2022/01/21 02:58:45;;;;;;;10.10;3.43;;;-1.00;99.90;;;;;;5028375;28;20177;-68
2022/01/21 03:01:13;;;;;;;13.57;3.87;;;-1.10;99.90;;;;;;5030356;28;20640;-69
2022/01/21 03:03:40;;;;;;;10.53;4.10;;;-1.10;99.90;;;;;;5030006;28;20180;-69
2022/01/21 03:06:06;;;;;;;14.07;3.40;;;-1.10;99.90;;;;;;5030969;28;20174;-69
2022/01/21 03:08:32;;;;;;;18.53;3.50;;;-1.10;99.90;;;;;;5031017;28;20183;-69
2022/01/21 03:10:58;;;;;;;16.43;3.60;;;-1.10;99.90;;;;;;5029391;28;20552;-68
2022/01/21 03:13:24;;;;;;;14.27;3.63;;;-1.20;99.90;;;;;;5029962;28;20242;-67
2022/01/21 03:15:53;;;;;;;9.07;3.30;;;-1.20;99.90;;;;;;5030827;28;20242;-67
2022/01/21 03:18:20;;;;;;;10.13;3.80;;;-1.20;99.90;;;;;;5030983;28;20251;-68
2022/01/21 03:20:46;;;;;;;17.87;4.07;;;-1.20;99.90;;;;;;5030496;28;20172;-68
2022/01/21 03:23:16;;;;;;;12.90;3.57;;;-1.10;99.90;;;;;;5031012;28;20182;-66
2022/01/21 03:25:44;;;;;;;13.53;4.03;;;-1.10;99.90;;;;;;5023996;28;20181;-68
2022/01/21 03:28:11;;;;;;;7.33;3.33;;;-1.10;99.90;;;;;;5010981;28;20608;-68
2022/01/21 03:30:37;;;;;;;14.60;3.70;;;-1.10;99.90;;;;;;5016634;28;20675;-67
2022/01/21 03:33:04;;;;;;;8.60;3.47;;;-1.00;99.90;;;;;;5030606;28;20248;-67
2022/01/21 03:35:30;;;;;;;6.60;2.87;;;-1.10;99.90;;;;;;5030630;28;20174;-67
2022/01/21 03:37:56;;;;;;;10.40;3.57;;;-1.10;99.90;;;;;;5030816;28;20189;-69
2022/01/21 03:40:22;;;;;;;10.27;3.57;;;-1.10;99.90;;;;;;5030412;28;20196;-67
2022/01/21 03:42:48;;;;;;;13.80;3.57;;;-1.10;99.90;;;;;;5030751;28;20166;-69
2022/01/21 03:45:14;;;;;;;10.13;3.53;;;-1.10;99.90;;;;;;5030516;28;20792;-69
2022/01/21 03:47:41;;;;;;;14.30;3.27;;;-1.20;99.90;;;;;;5030780;28;20185;-68
2022/01/21 03:52:52;;;;;;;13.20;3.80;;;-1.30;99.90;;;;;;5030693;28;20617;-69
2022/01/21 03:55:18;;;;;;;11.03;3.90;;;-1.40;99.90;;;;;;5028621;28;20177;-69
2022/01/21 03:57:44;;;;;;;12.03;3.60;;;-1.40;99.90;;;;;;5022264;28;20235;-69
2022/01/21 04:00:15;;;;;;;10.13;3.23;;;-2.00;99.90;;;;;;5030728;28;20166;-69
2022/01/21 04:02:41;;;;;;;7.47;2.87;;;-1.50;99.90;;;;;;5030688;28;20174;-69
2022/01/21 04:05:07;;;;;;;9.07;3.13;;;-1.50;99.90;;;;;;5030099;28;20177;-67
2022/01/21 04:07:33;;;;;;;9.13;3.30;;;-1.50;99.90;;;;;;5030640;28;20200;-69
2022/01/21 04:09:58;;;;;;;10.07;3.57;;;-1.50;99.90;;;;;;5030355;28;20259;-70
2022/01/21 04:12:24;;;;;;;11.37;3.40;;;-1.50;99.90;;;;;;5029993;28;20240;-70
2022/01/21 04:14:51;;;;;;;10.27;3.23;;;-1.50;99.90;;;;;;5030573;28;20188;-70
2022/01/21 04:17:18;;;;;;;13.10;3.27;;;-1.70;99.90;;;;;;5030368;28;20185;-68
2022/01/21 04:19:44;;;;;;;10.53;3.20;;;-1.40;99.90;;;;;;5030233;28;20215;-70
2022/01/21 04:22:10;;;;;;;14.33;3.47;;;-1.60;99.90;;;;;;5032177;28;20226;-69
2022/01/21 04:24:37;;;;;;;14.03;3.87;;;-1.40;99.90;;;;;;5016253;28;20532;-68
2022/01/21 04:27:03;;;;;;;9.07;3.20;;;-1.40;99.90;;;;;;5034881;28;20186;-69
2022/01/21 04:29:29;;;;;;;12.67;3.90;;;-1.30;99.90;;;;;;5017676;28;20629;-70
2022/01/21 04:31:54;;;;;;;16.00;4.10;;;-1.40;99.90;;;;;;5036711;28;20233;-68
2022/01/21 04:34:20;;;;;;;17.70;3.50;;;-1.30;99.90;;;;;;5036064;28;20180;-69
2022/01/21 04:36:46;;;;;;;12.60;3.20;;;-1.30;99.90;;;;;;5033976;28;20182;-69
2022/01/21 04:39:19;;;;;;;9.03;3.20;;;-1.30;99.90;;;;;;5033807;28;20723;-69
2022/01/21 04:49:38;;;;;;;16.17;3.90;;;-1.30;99.90;;;;;;5033526;28;20186;-68
2022/01/21 04:52:04;;;;;;;16.17;3.30;;;-1.40;99.90;;;;;;5033330;28;20221;-68
2022/01/21 04:54:32;;;;;;;6.80;3.07;;;-1.40;99.90;;;;;;5033786;28;20193;-67
2022/01/21 04:56:58;;;;;;;11.13;3.37;;;-1.40;99.90;;;;;;5033656;28;20181;-67
2022/01/21 04:59:24;;;;;;;11.17;3.63;;;-0.90;99.90;;;;;;5015495;28;20184;-66
2022/01/21 05:01:51;;;;;;;10.63;3.43;;;-1.40;99.90;;;;;;5033424;28;20177;-67
2022/01/21 05:04:19;;;;;;;14.83;3.63;;;-1.40;99.90;;;;;;5033329;28;20180;-68
2022/01/21 05:06:45;;;;;;;12.20;3.57;;;-1.50;99.90;;;;;;5029698;28;20247;-67
2022/01/21 05:09:10;;;;;;;15.43;3.83;;;-1.50;99.90;;;;;;5023718;28;20189;-69
2022/01/21 05:11:38;;;;;;;12.60;3.90;;;-1.60;99.90;;;;;;5033238;28;20199;-67
2022/01/21 05:14:18;;;;;;;10.40;3.67;;;-1.60;99.90;;;;;;5032881;28;20208;-68
2022/01/21 05:16:47;;;;;;;14.97;3.63;;;-1.70;99.90;;;;;;5032812;28;20217;-68
2022/01/21 05:19:15;;;;;;;12.27;4.20;;;-1.70;99.90;;;;;;5033121;28;20910;-68
2022/01/21 05:21:49;;;;;;;16.00;3.30;;;-1.70;99.90;;;;;;5015295;28;20717;-67
2022/01/21 05:24:17;;;;;;;9.53;3.57;;;-1.70;99.90;;;;;;5032831;28;20172;-67
2022/01/21 05:26:52;;;;;;;18.40;3.27;;;-1.80;99.90;;;;;;5032584;28;20185;-66
2022/01/21 05:29:20;;;;;;;12.93;3.53;;;-1.70;99.90;;;;;;5032865;28;20569;-66
2022/01/21 05:31:46;;;;;;;12.17;3.60;;;-1.70;99.90;;;;;;5032834;28;20205;-66
2022/01/21 05:34:12;;;;;;;13.23;3.37;;;-1.70;99.90;;;;;;5032606;28;20173;-67
2022/01/21 05:36:40;;;;;;;12.23;4.03;;;-1.70;99.90;;;;;;5032897;28;20184;-66
2022/01/21 05:39:07;;;;;;;10.37;3.60;;;-1.70;99.90;;;;;;5032640;28;20259;-66
2022/01/21 05:41:33;;;;;;;13.57;4.00;;;-1.70;99.90;;;;;;5031611;28;20186;-67
2022/01/21 05:44:08;;;;;;;9.60;3.30;;;-1.80;99.90;;;;;;5032681;28;20180;-68
2022/01/21 05:49:18;;;;;;;10.27;3.50;;;-1.90;99.90;;;;;;5032715;28;20218;-67
2022/01/21 05:51:43;;;;;;;9.00;3.63;;;-1.60;99.90;;;;;;5032096;28;20193;-67
2022/01/21 05:54:10;;;;;;;16.57;3.40;;;-1.60;99.90;;;;;;5014821;28;20177;-68
2022/01/21 05:56:37;;;;;;;10.90;3.97;;;-1.60;99.90;;;;;;5025313;28;20178;-67
2022/01/21 05:59:04;;;;;;;11.50;3.83;;;-1.60;99.90;;;;;;5012550;28;20241;-67
2022/01/21 06:01:31;;;;;;;16.87;3.60;;;-1.60;99.90;;;;;;5022819;28;20581;-68
2022/01/21 06:03:57;;;;;;;21.23;4.17;;;-1.70;99.90;;;;;;5032060;28;20181;-67
2022/01/21 06:06:23;;;;;;;13.97;3.57;;;-1.70;99.90;;;;;;5031897;28;20645;-67
2022/01/21 06:08:49;;;;;;;11.97;3.53;;;-1.70;99.90;;;;;;5031676;28;20640;-67
2022/01/21 06:11:15;;;;;;;11.73;3.93;;;-1.80;99.90;;;;;;5032106;28;20170;-67
2022/01/21 06:13:41;;;;;;;11.73;4.07;;;-1.20;99.90;;;;;;5031574;28;20240;-67
2022/01/21 06:16:07;;;;;;;15.00;3.60;;;-1.80;99.90;;;;;;5014420;28;20185;-66
2022/01/21 06:18:32;;;;;;;11.97;4.07;;;-1.80;99.90;;;;;;5031475;28;20184;-67
2022/01/21 06:20:58;;;;;;;19.73;4.63;;;-1.80;99.90;;;;;;5031508;28;20185;-68
2022/01/21 06:23:24;;;;;;;11.63;4.00;;;-1.80;99.90;;;;;;5031927;28;20575;-69
2022/01/21 06:25:50;;;;;;;12.50;3.83;;;-1.70;99.90;;;;;;5031947;28;20188;-69
2022/01/21 06:28:16;;;;;;;12.27;4.20;;;-1.70;99.90;;;;;;5031509;28;20182;-70
2022/01/21 06:30:42;;;;;;;9.13;3.70;;;-1.80;99.90;;;;;;5031834;28;20170;-60
2022/01/21 06:33:09;;;;;;;12.23;3.70;;;-1.80;99.90;;;;;;5031248;28;20273;-60
2022/01/21 06:35:35;;;;;;;19.37;4.37;;;-1.70;99.90;;;;;;5013575;28;20189;-68
2022/01/21 06:38:01;;;;;;;14.67;3.83;;;-1.70;99.90;;;;;;5014263;28;20233;-67
2022/01/21 06:40:26;;;;;;;17.33;3.80;;;-1.70;99.90;;;;;;5031602;28;20166;-68
2022/01/21 06:43:00;;;;;;;16.77;3.93;;;-1.70;99.90;;;;;;5031222;28;20189;-67
2022/01/21 06:45:26;;;;;;;10.87;3.20;;;-1.80;99.90;;;;;;5030675;28;20190;-67
2022/01/21 06:47:51;;;;;;;12.07;3.97;;;-1.80;99.90;;;;;;5031496;28;20182;-67
2022/01/21 06:50:17;;;;;;;15.10;4.30;;;-1.80;99.90;;;;;;5031003;28;20173;-67
2022/01/21 06:52:43;;;;;;;11.47;3.90;;;-1.80;99.90;;;;;;5031323;28;20213;-67
2022/01/21 06:55:09;;;;;;;13.23;3.90;;;-1.70;99.90;;;;;;5030806;28;20176;-67
2022/01/21 06:57:38;;;;;;;16.53;4.57;;;-1.80;99.90;;;;;;5031389;28;20181;-67
2022/01/21 07:00:06;;;;;;;9.63;4.03;;;-1.80;99.90;;;;;;5031244;28;20187;-67
2022/01/21 07:02:32;;;;;;;10.83;3.57;;;-1.80;99.90;;;;;;5015147;28;20196;-67
2022/01/21 07:04:58;;;;;;;11.63;3.97;;;-1.80;99.90;;;;;;5011882;28;20182;-67
2022/01/21 07:07:23;;;;;;;9.03;3.47;;;-1.90;99.90;;;;;;5017025;28;20182;-68
2022/01/21 07:09:50;;;;;;;13.90;3.60;;;-1.90;99.90;;;;;;5031124;28;20197;-65
2022/01/21 07:12:16;;;;;;;15.37;3.90;;;-1.80;99.90;;;;;;5030523;28;20253;-66
2022/01/21 07:14:42;;;;;;;14.23;4.17;;;-1.80;99.90;;;;;;5031058;28;20204;-66
2022/01/21 07:17:08;;;;;;;12.77;4.17;;;-1.80;99.90;;;;;;5031042;28;20198;-66
2022/01/21 07:19:34;;;;;;;15.90;3.90;;;-1.70;99.90;;;;;;5030623;28;20651;-66
2022/01/21 07:22:00;;;;;;;12.23;4.33;;;-1.80;99.90;;;;;;5030687;28;20176;-66
2022/01/21 07:24:26;;;;;;;14.00;3.97;;;-1.70;99.90;;;;;;5030651;28;20185;-66
2022/01/21 07:26:52;;;;;;;15.37;3.97;;;-1.80;99.90;;;;;;5030918;28;20170;-66
2022/01/21 07:29:17;;;;;;;12.73;4.13;;;-1.80;99.90;;;;;;5029786;28;20722;-67
2022/01/21 07:31:43;;;;;;;12.43;3.70;;;-1.90;99.90;;;;;;5030904;28;20213;-68
2022/01/21 07:34:09;;;;;;;9.30;3.70;;;-1.90;99.90;;;;;;5031270;28;20178;-68
2022/01/21 07:36:35;;;;;;;12.77;4.03;;;-1.90;99.90;;;;;;5030294;28;20224;-68
2022/01/21 07:39:03;;;;;;;9.33;3.90;;;-1.20;99.90;;;;;;5030909;28;20174;-67
2022/01/21 07:41:29;;;;;;;17.10;4.27;;;-1.80;99.90;;;;;;5030707;28;20202;-68
2022/01/21 07:43:55;;;;;;;11.83;3.80;;;-1.80;99.90;;;;;;5030205;28;20685;-62
2022/01/21 07:46:21;;;;;;;10.63;4.50;;;-1.90;99.90;;;;;;5030339;28;20208;-63
2022/01/21 07:48:47;;;;;;;13.47;4.90;;;-1.80;99.90;;;;;;5030203;28;20561;-63
2022/01/21 07:51:13;;;;;;;14.40;4.30;;;-1.80;99.90;;;;;;5030334;28;20173;-63
2022/01/21 07:53:38;;;;;;;10.70;3.87;;;-1.80;99.90;;;;;;5028315;28;20229;-70
2022/01/21 07:56:04;;;;;;;16.07;4.40;;;-1.80;99.90;;;;;;5016858;28;20175;-64
2022/01/21 07:58:31;;;;;;;9.97;4.90;;;-1.90;99.90;;;;;;5033788;28;20230;-65
2022/01/21 08:00:57;;;;;;;12.50;4.30;;;-1.80;99.90;;;;;;5033655;28;20372;-62
2022/01/21 08:03:24;;;;;;;11.63;4.10;;;-1.50;99.90;;;;;;5029870;28;20177;-60
2022/01/21 08:05:52;;;;;;;11.70;4.60;;;-1.80;99.90;;;;;;5031411;28;20260;-61
2022/01/21 08:08:18;;;;;;;13.37;4.87;;;-1.80;99.90;;;;;;5027041;28;20200;-69
2022/01/21 08:10:44;;;;;;;13.00;5.33;;;-1.80;99.90;;;;;;5034487;28;20178;-69
2022/01/21 08:13:10;;;;;;;12.87;5.83;;;-1.70;99.90;;;;;;5033956;28;20238;-68
2022/01/21 08:15:35;;;;;;;17.13;5.30;;;-1.60;99.90;;;;;;5034170;28;20273;-67
2022/01/21 08:18:01;;;;;;;19.60;5.43;;;-1.50;99.90;;;;;;5033825;28;20193;-67
2022/01/21 08:20:28;;;;;;;13.70;5.33;;;-1.30;99.90;;;;;;5033948;28;20203;-66
2022/01/21 08:22:54;;;;;;;25.93;6.03;;;-1.10;99.90;;;;;;5033328;28;20198;-66
2022/01/21 08:25:20;;;;;;;15.40;5.83;;;-1.00;99.90;;;;;;5033168;28;20176;-65
2022/01/21 08:27:47;;;;;;;21.20;5.57;;;-0.70;99.90;;;;;;5033994;28;20173;-67
2022/01/21 08:30:14;;;;;;;16.17;6.63;;;-0.50;99.90;;;;;;5029353;28;20181;-67
2022/01/21 08:32:40;;;;;;;19.40;6.87;;;-0.20;99.90;;;;;;5030292;28;20209;-69
2022/01/21 08:35:07;;;;;;;23.63;6.93;;;0.10;99.90;;;;;;5033526;28;20635;-65
2022/01/21 08:37:33;;;;;;;11.60;5.10;;;0.10;99.90;;;;;;5033042;28;20213;-66
2022/01/21 08:40:14;;;;;;;19.50;6.20;;;0.10;99.90;;;;;;5032675;28;20201;-67
2022/01/21 08:42:40;;;;;;;21.17;6.17;;;0.10;99.90;;;;;;5033306;28;20244;-62
2022/01/21 08:45:06;;;;;;;16.57;5.97;;;0.10;99.90;;;;;;5032768;28;20725;-61
2022/01/21 08:47:32;;;;;;;19.63;7.20;;;0.10;99.90;;;;;;5032981;28;20213;-64
2022/01/21 08:50:01;;;;;;;20.03;7.30;;;0.10;99.90;;;;;;5029525;28;20580;-65
2022/01/21 08:52:29;;;;;;;18.20;7.50;;;0.20;99.90;;;;;;5032948;28;20217;-70
2022/01/21 08:54:55;;;;;;;19.57;7.07;;;0.20;99.90;;;;;;5032832;28;20186;-71
2022/01/21 08:57:21;;;;;;;21.83;6.37;;;0.20;99.90;;;;;;5032636;28;20592;-70
2022/01/21 08:59:49;;;;;;;19.87;5.73;;;0.30;99.90;;;;;;5032149;28;20188;-71
2022/01/21 09:02:15;;;;;;;11.60;5.43;;;0.40;99.90;;;;;;5024055;28;20666;-70
2022/01/21 09:04:41;;;;;;;23.00;6.13;;;0.30;99.90;;;;;;5015522;28;20218;-68
2022/01/21 09:07:07;;;;;;;17.40;6.67;;;0.40;99.90;;;;;;5025255;28;20659;-70
2022/01/21 09:09:32;;;;;;;20.50;6.67;;;0.40;99.90;;;;;;5032913;28;20202;-65
2022/01/21 09:12:01;;;;;;;28.80;6.73;;;0.40;99.90;;;;;;5017395;28;20245;-66
2022/01/21 09:14:29;;;;;;;16.23;6.10;;;0.60;99.90;;;;;;5031702;28;20174;-68
2022/01/21 09:16:56;;;;;;;25.87;5.50;;;0.70;99.90;;;;;;5009257;28;20265;-69
2022/01/21 09:19:23;;;;;;;13.30;5.87;;;0.70;99.90;;;;;;5009284;28;20554;-68
2022/01/21 09:21:51;;;;;;;24.93;6.70;;;0.70;99.90;;;;;;5014635;28;20174;-70
2022/01/21 09:24:18;;;;;;;19.83;5.93;;;0.80;99.90;;;;;;5031666;28;20264;-70
2022/01/21 09:26:45;;;;;;;22.53;6.20;;;0.90;99.90;;;;;;5013652;28;20170;-71
2022/01/21 09:29:11;;;;;;;17.07;5.70;;;0.90;99.90;;;;;;5032477;28;20178;-71
2022/01/21 09:31:38;;;;;;;14.33;5.80;;;1.40;99.90;;;;;;5032549;28;20256;-70
2022/01/21 09:34:05;;;;;;;20.93;6.60;;;1.20;99.90;;;;;;5030247;28;20648;-73
2022/01/21 09:36:32;;;;;;;16.13;6.90;;;1.30;99.90;;;;;;5031916;28;20189;-71
2022/01/21 09:39:00;;;;;;;23.93;7.40;;;1.50;99.90;;;;;;5029409;28;20180;-66
2022/01/21 09:41:28;;;;;;;25.20;7.73;;;1.90;99.90;;;;;;5030958;28;20648;-63
2022/01/21 09:43:54;;;;;;;23.87;6.93;;;2.10;99.90;;;;;;5011235;28;20213;-61
2022/01/21 09:46:32;;;;;;;17.80;7.50;;;2.80;99.90;;;;;;5030402;28;20181;-60
2022/01/21 09:49:08;;;;;;;17.10;6.93;;;2.50;99.90;;;;;;5031461;28;20201;-60
2022/01/21 09:51:37;;;;;;;23.53;7.87;;;2.50;99.90;;;;;;5031924;28;20195;-60
2022/01/21 09:54:06;;;;;;;18.40;7.50;;;2.80;99.90;;;;;;5032036;28;20626;-61
2022/01/21 09:56:34;;;;;;;19.50;7.27;;;3.10;99.90;;;;;;5031560;28;20178;-60
2022/01/21 09:59:01;;;;;;;15.70;7.80;;;3.10;99.90;;;;;;5031486;28;20183;-60
2022/01/21 10:01:27;;;;;;;27.93;7.70;;;3.30;99.90;;;;;;5031710;28;20227;-60
2022/01/21 10:03:53;;;;;;;25.03;8.27;;;3.50;99.90;;;;;;5031028;28;20667;-60
2022/01/21 10:06:24;;;;;;;20.83;7.23;;;3.40;99.90;;;;;;5031593;28;20181;-57
2022/01/21 10:08:54;;;;;;;28.07;8.17;;;3.40;99.90;;;;;;5031373;28;20236;-59
2022/01/21 10:11:20;;;;;;;18.10;6.87;;;3.50;99.90;;;;;;5031329;28;20276;-58
2022/01/21 10:13:48;;;;;;;24.80;8.47;;;3.30;99.90;;;;;;5030477;28;20221;-58
2022/01/21 10:16:14;;;;;;;28.17;8.93;;;3.10;99.90;;;;;;5031188;28;20174;-59
2022/01/21 10:18:59;;;;;;;22.70;9.50;;;3.20;99.90;;;;;;5033124;28;20261;-59
2022/01/21 10:21:35;;;;;;;21.03;7.97;;;3.30;99.90;;;;;;5031346;28;20307;-60
2022/01/21 10:24:12;;;;;;;21.47;8.20;;;3.40;99.90;;;;;;5028356;28;20545;-60
2022/01/21 10:26:54;;;;;;;22.90;8.43;;;3.60;99.90;;;;;;5031254;28;20264;-60
2022/01/21 10:29:21;;;;;;;28.87;9.17;;;3.80;99.90;;;;;;5013431;28;20181;-74
2022/01/21 10:31:55;;;;;;;25.00;8.60;;;4.00;99.90;;;;;;5034169;28;20161;-67
2022/01/21 10:34:26;;;;;;;27.50;7.80;;;4.30;99.90;;;;;;5042070;28;20176;-71
2022/01/21 10:36:57;;;;;;;23.23;7.67;;;4.80;99.90;;;;;;5031762;28;20257;-81
2022/01/21 10:39:31;;;;;;;25.63;7.80;;;5.00;99.90;;;;;;5031406;28;20241;-68
2022/01/21 10:41:58;;;;;;;19.67;7.53;;;4.90;99.90;;;;;;5030867;28;20177;-69
2022/01/21 10:44:30;;;;;;;23.60;7.40;;;5.10;99.90;;;;;;5030737;28;20178;-73
2022/01/21 10:47:02;;;;;;;18.63;7.13;;;4.70;99.90;;;;;;5030648;28;20179;-79
2022/01/21 10:49:27;;;;;;;15.43;7.20;;;4.80;99.90;;;;;;5028376;28;20186;-77
2022/01/21 10:51:55;;;;;;;16.83;6.20;;;5.20;99.90;;;;;;5031919;28;20659;-78
2022/01/21 10:54:26;;;;;;;16.67;5.90;;;5.80;99.90;;;;;;5015470;28;20239;-78
2022/01/21 10:57:16;;;;;;;20.27;6.23;;;6.20;99.90;;;;;;5004625;28;20186;-77
2022/01/21 10:59:47;;;;;;;28.47;6.80;;;6.40;99.90;;;;;;5038056;28;20174;-75
2022/01/21 11:02:13;;;;;;;15.63;6.77;;;6.40;99.90;;;;;;5029290;28;20170;-75
2022/01/21 11:04:44;;;;;;;25.73;7.53;;;6.30;99.90;;;;;;4999930;28;20670;-76
2022/01/21 11:07:14;;;;;;;20.10;6.80;;;6.70;99.90;;;;;;5025168;28;20253;-76
2022/01/21 11:09:40;;;;;;;24.67;8.10;;;6.80;99.90;;;;;;5030392;28;20219;-76
2022/01/21 11:12:09;;;;;;;20.83;8.20;;;7.90;99.90;;;;;;5001277;28;20353;-75
2022/01/21 11:14:36;;;;;;;22.23;7.87;;;9.10;99.90;;;;;;4988174;28;20274;-74
2022/01/21 11:17:07;;;;;;;21.67;7.07;;;8.50;99.90;;;;;;4989327;28;20189;-67
2022/01/21 11:19:35;;;;;;;26.50;6.90;;;7.90;99.90;;;;;;4986871;28;20201;-68
2022/01/21 11:22:04;;;;;;;28.50;7.63;;;7.70;99.90;;;;;;4989808;28;20671;-71
2022/01/21 11:24:30;;;;;;;35.33;8.97;;;7.80;99.90;;;;;;4989414;28;20242;-72
2022/01/21 11:27:10;;;;;;;32.67;7.47;;;7.50;99.90;;;;;;4981726;28;20180;-78
2022/01/21 11:29:36;;;;;;;31.20;7.63;;;7.40;99.90;;;;;;4988151;28;20246;-77
2022/01/21 11:32:04;;;;;;;24.70;6.93;;;7.40;99.90;;;;;;4985089;28;20215;-75
2022/01/21 11:34:31;;;;;;;21.43;7.17;;;7.00;99.90;;;;;;4981578;28;20863;-75
2022/01/21 11:36:58;;;;;;;33.17;7.80;;;6.60;99.90;;;;;;4989407;28;20179;-75
2022/01/21 11:39:25;;;;;;;21.40;7.37;;;6.60;99.90;;;;;;4989909;28;20187;-75
2022/01/21 11:41:55;;;;;;;20.57;6.50;;;6.40;99.90;;;;;;4988578;28;20175;-72
2022/01/21 11:44:25;;;;;;;18.93;6.10;;;6.40;99.90;;;;;;4981485;28;20217;-71
2022/01/21 11:47:01;;;;;;;19.03;5.47;;;6.40;99.90;;;;;;4989492;28;20171;-73
2022/01/21 11:49:29;;;;;;;20.27;5.73;;;6.40;99.90;;;;;;4988446;28;20197;-76
2022/01/21 11:52:11;;;;;;;19.47;5.70;;;6.70;99.90;;;;;;4986138;28;20299;-75
2022/01/21 11:54:37;;;;;;;21.03;5.50;;;6.50;99.90;;;;;;5000785;28;20728;-74
2022/01/21 11:57:06;;;;;;;25.23;5.60;;;6.40;99.90;;;;;;4999680;28;20236;-74
2022/01/21 12:02:21;;;;;;;17.73;5.43;;;6.30;99.90;;;;;;4987738;28;20270;-75
2022/01/21 12:04:50;;;;;;;18.77;6.20;;;6.30;99.90;;;;;;4988177;28;20187;-75
2022/01/21 12:07:40;;;;;;;24.03;7.03;;;6.10;99.90;;;;;;4995940;28;20634;-74
2022/01/21 12:10:21;;;;;;;30.53;6.40;;;6.10;99.90;;;;;;4996978;28;20245;-76
2022/01/21 12:13:05;;;;;;;21.37;5.30;;;6.10;99.90;;;;;;5008565;28;20241;-76
2022/01/21 12:15:39;;;;;;;43.53;10.70;;;6.00;99.90;;;;;;5029349;28;20193;-76
2022/01/21 12:18:07;;;;;;;42.20;11.40;;;6.20;99.90;;;;;;5029915;28;20189;-75
2022/01/21 12:20:35;;;;;;;37.47;9.73;;;6.20;99.90;;;;;;5030043;28;20273;-76
2022/01/21 12:23:25;;;;;;;39.27;8.47;;;6.10;99.90;;;;;;5029255;28;20174;-72
2022/01/21 12:26:09;;;;;;;33.70;8.00;;;6.20;99.90;;;;;;5013875;28;20177;-79
2022/01/21 12:28:39;;;;;;;27.50;7.00;;;6.20;99.90;;;;;;5037904;28;20291;-78
2022/01/21 12:31:06;;;;;;;18.73;4.70;;;6.20;99.90;;;;;;5036134;28;20166;-75
2022/01/21 12:36:26;;;;;;;13.33;4.47;;;6.00;99.90;;;;;;5042862;28;20177;-73
2022/01/21 12:41:18;;;;;;;19.07;4.80;;;6.10;99.90;;;;;;5029583;28;20284;-70
2022/01/21 12:43:46;;;;;;;23.20;5.70;;;6.10;99.90;;;;;;5032385;28;20700;-70
2022/01/21 12:46:33;;;;;;;13.40;4.47;;;6.00;99.90;;;;;;5032693;28;20270;-70
2022/01/21 12:49:00;;;;;;;25.63;5.23;;;6.10;99.90;;;;;;5033072;28;20193;-69
2022/01/21 12:57:02;;;;;;;18.93;5.30;;;6.10;99.90;;;;;;5032412;28;20193;-81
2022/01/21 12:59:29;;;;;;;21.17;6.33;;;6.00;99.90;;;;;;5040782;28;20185;-82
2022/01/21 13:01:56;;;;;;;18.77;5.87;;;6.00;99.90;;;;;;5044743;28;20227;-78
2022/01/21 13:04:37;;;;;;;21.73;5.87;;;6.00;99.90;;;;;;5019985;28;20179;-79
2022/01/21 13:07:08;;;;;;;29.77;6.80;;;6.10;99.90;;;;;;5029276;28;20266;-78
2022/01/21 13:09:49;;;;;;;20.17;6.73;;;6.10;99.90;;;;;;5035775;28;20181;-82
2022/01/21 13:12:16;;;;;;;22.83;6.57;;;6.10;99.90;;;;;;5043224;28;20216;-82
2022/01/21 13:14:55;;;;;;;22.90;6.93;;;6.10;99.90;;;;;;5017786;28;20224;-79
2022/01/21 13:17:21;;;;;;;32.20;6.67;;;6.10;99.90;;;;;;5024119;28;20193;-82
2022/01/21 13:19:52;;;;;;;30.73;7.27;;;6.10;99.90;;;;;;5040224;28;20204;-81
2022/01/21 13:22:19;;;;;;;28.33;6.37;;;6.20;99.90;;;;;;5040720;28;20192;-81
2022/01/21 13:25:05;;;;;;;32.20;6.93;;;6.20;99.90;;;;;;5024823;28;20351;-82
2022/01/21 13:27:33;;;;;;;50.77;8.50;;;6.20;99.90;;;;;;5020191;28;20182;-80
2022/01/21 13:30:10;;;;;;;27.20;6.77;;;6.20;99.90;;;;;;5033040;28;20178;-78
2022/01/21 13:32:36;;;;;;;26.00;6.87;;;6.20;99.90;;;;;;5032281;28;20241;-81
2022/01/21 13:35:23;;;;;;;23.00;6.53;;;6.20;99.90;;;;;;5031880;28;20173;-79
2022/01/21 13:38:11;;;;;;;27.10;7.13;;;6.10;99.90;;;;;;5031503;28;20189;-80
2022/01/21 13:40:42;;;;;;;38.03;9.07;;;6.10;99.90;;;;;;5030320;28;20174;-79
2022/01/21 13:43:20;;;;;;;31.93;9.50;;;6.20;99.90;;;;;;5012607;28;20173;-81
2022/01/21 13:46:03;;;;;;;37.33;8.53;;;6.20;99.90;;;;;;5031230;28;20187;-79
2022/01/21 13:48:32;;;;;;;30.70;7.27;;;6.20;99.90;;;;;;5032430;28;20197;-78
2022/01/21 13:51:01;;;;;;;39.57;8.50;;;6.20;99.90;;;;;;5032450;28;20636;-77